createdAt,value
2019-02-11T00:00:40.602Z,11.83
2019-02-11T00:03:11.124Z,17.43
2019-02-11T00:05:40.079Z,14.17
2019-02-11T00:08:08.818Z,15.63
2019-02-11T00:10:38.724Z,17.23
2019-02-11T00:13:10.639Z,12.57
2019-02-11T00:15:38.198Z,12.87
2019-02-11T00:18:07.028Z,11.13
2019-02-11T00:20:35.880Z,12.00
2019-02-11T00:23:04.280Z,19.27
2019-02-11T00:25:32.927Z,12.73
2019-02-11T00:28:01.631Z,16.83
2019-02-11T00:30:30.318Z,15.13
2019-02-11T00:32:58.929Z,11.83
2019-02-11T00:35:29.170Z,14.90
2019-02-11T00:37:57.716Z,14.17
2019-02-11T00:40:26.314Z,8.50
2019-02-11T00:42:55.203Z,11.60
2019-02-11T00:45:24.331Z,12.43
2019-02-11T00:47:53.287Z,12.67
2019-02-11T00:50:22.304Z,15.83
2019-02-11T00:52:51.255Z,20.77
2019-02-11T00:55:19.771Z,11.93
2019-02-11T00:57:48.419Z,15.13
2019-02-11T01:00:17.036Z,14.13
2019-02-11T01:02:46.042Z,16.57
2019-02-11T01:05:14.992Z,12.63
2019-02-11T01:07:43.674Z,17.43
2019-02-11T01:10:12.184Z,10.90
2019-02-11T01:12:46.644Z,16.57
2019-02-11T01:15:15.309Z,17.60
2019-02-11T01:17:44.075Z,11.20
2019-02-11T01:20:12.680Z,14.20
2019-02-11T01:22:41.635Z,18.30
2019-02-11T01:25:10.235Z,13.33
2019-02-11T01:27:38.659Z,13.90
2019-02-11T01:30:08.633Z,18.97
2019-02-11T01:32:36.967Z,11.90
2019-02-11T01:35:05.987Z,18.83
2019-02-11T01:37:34.708Z,14.83
2019-02-11T01:40:03.767Z,16.37
2019-02-11T01:42:32.393Z,13.83
2019-02-11T01:45:01.238Z,14.80
2019-02-11T01:47:29.691Z,15.83
2019-02-11T01:49:58.405Z,16.30
2019-02-11T01:52:27.130Z,20.67
2019-02-11T01:54:56.086Z,18.63
2019-02-11T01:57:24.899Z,12.97
2019-02-11T01:59:53.392Z,17.43
2019-02-11T02:02:22.135Z,19.90
2019-02-11T02:04:50.650Z,14.77
2019-02-11T02:07:19.263Z,16.73
2019-02-11T02:09:47.823Z,21.37
2019-02-11T02:12:16.616Z,22.73
2019-02-11T02:14:45.464Z,25.40
2019-02-11T02:17:14.070Z,24.07
2019-02-11T02:19:44.085Z,21.17
2019-02-11T02:22:12.896Z,18.67
2019-02-11T02:24:41.526Z,18.63
2019-02-11T02:27:10.275Z,18.07
2019-02-11T02:29:39.039Z,20.10
2019-02-11T02:32:08.591Z,12.80
2019-02-11T02:34:37.428Z,22.10
2019-02-11T02:37:05.855Z,19.77
2019-02-11T02:39:34.617Z,21.97
2019-02-11T02:42:03.312Z,18.73
2019-02-11T02:44:32.787Z,23.50
2019-02-11T02:47:01.314Z,15.47
2019-02-11T02:49:29.915Z,22.07
2019-02-11T02:51:58.379Z,21.00
2019-02-11T02:54:27.098Z,27.07
2019-02-11T02:56:55.703Z,25.30
2019-02-11T02:59:24.671Z,25.80
2019-02-11T03:01:53.323Z,23.77
2019-02-11T03:04:21.717Z,23.70
2019-02-11T03:06:50.177Z,20.17
2019-02-11T03:09:18.944Z,29.47
2019-02-11T03:11:47.795Z,30.53
2019-02-11T03:14:16.185Z,30.27
2019-02-11T03:16:44.906Z,23.07
2019-02-11T03:19:13.899Z,26.53
2019-02-11T03:21:42.895Z,25.00
2019-02-11T03:24:11.576Z,22.10
2019-02-11T03:26:40.271Z,27.37
2019-02-11T03:29:09.260Z,19.90
2019-02-11T03:31:38.560Z,22.90
2019-02-11T03:34:07.859Z,29.23
2019-02-11T03:36:36.411Z,29.57
2019-02-11T03:39:05.460Z,35.67
2019-02-11T03:41:34.120Z,23.63
2019-02-11T03:44:02.914Z,27.87
2019-02-11T03:46:31.560Z,24.37
2019-02-11T03:49:00.285Z,25.43
2019-02-11T03:51:30.629Z,24.20
2019-02-11T03:53:59.115Z,28.83
2019-02-11T03:56:27.511Z,25.37
2019-02-11T03:58:56.082Z,26.07
2019-02-11T04:01:24.810Z,38.90
2019-02-11T04:03:53.325Z,25.60
2019-02-11T04:06:21.942Z,25.77
2019-02-11T04:08:50.639Z,22.40
2019-02-11T04:11:18.995Z,17.77
2019-02-11T04:13:47.690Z,28.20
2019-02-11T04:16:16.144Z,22.53
2019-02-11T04:18:44.831Z,31.70
2019-02-11T04:21:13.531Z,25.97
2019-02-11T04:23:42.642Z,21.57
2019-02-11T04:26:11.234Z,28.70
2019-02-11T04:28:40.127Z,23.43
2019-02-11T04:31:08.858Z,20.57
2019-02-11T04:33:37.803Z,22.23
2019-02-11T04:36:06.492Z,32.10
2019-02-11T04:38:35.484Z,26.87
2019-02-11T04:41:04.204Z,29.43
2019-02-11T04:43:33.209Z,27.93
2019-02-11T04:46:01.960Z,25.57
2019-02-11T04:48:30.519Z,28.33
2019-02-11T04:50:59.267Z,21.67
2019-02-11T04:53:28.275Z,26.77
2019-02-11T04:55:56.976Z,29.07
2019-02-11T04:58:25.619Z,27.47
2019-02-11T05:00:55.511Z,29.33
2019-02-11T05:03:23.861Z,20.83
2019-02-11T05:05:52.769Z,22.80
2019-02-11T05:08:21.383Z,24.60
2019-02-11T05:10:50.011Z,25.47
2019-02-11T05:13:18.759Z,32.37
2019-02-11T05:15:47.296Z,26.87
2019-02-11T05:18:16.982Z,21.63
2019-02-11T05:20:46.172Z,21.00
2019-02-11T05:23:14.591Z,36.43
2019-02-11T05:25:43.011Z,21.40
2019-02-11T05:28:11.857Z,22.82
2019-02-11T05:30:40.399Z,26.27
2019-02-11T05:33:09.022Z,21.07
2019-02-11T05:35:38.673Z,22.60
2019-02-11T05:38:07.280Z,17.90
2019-02-11T05:40:35.676Z,22.13
2019-02-11T05:43:04.387Z,22.73
2019-02-11T05:45:32.805Z,22.40
2019-02-11T05:48:01.414Z,23.37
2019-02-11T05:50:29.892Z,16.83
2019-02-11T05:52:58.420Z,23.60
2019-02-11T05:55:28.172Z,18.17
2019-02-11T05:57:56.836Z,20.87
2019-02-11T06:00:25.805Z,22.27
2019-02-11T06:02:54.716Z,14.27
2019-02-11T06:05:23.835Z,15.55
2019-02-11T06:07:52.475Z,13.07
2019-02-11T06:10:20.827Z,13.20
2019-02-11T06:12:49.447Z,11.40
2019-02-11T06:15:18.139Z,14.40
2019-02-11T06:17:46.575Z,17.40
2019-02-11T06:20:15.290Z,13.27
2019-02-11T06:22:43.977Z,11.70
2019-02-11T06:25:12.466Z,9.80
2019-02-11T06:27:41.347Z,18.53
2019-02-11T06:30:10.691Z,14.13
2019-02-11T06:32:39.482Z,14.77
2019-02-11T06:35:08.357Z,12.97
2019-02-11T06:37:37.083Z,12.80
2019-02-11T06:40:06.249Z,15.80
2019-02-11T06:42:34.746Z,18.07
2019-02-11T06:45:03.606Z,14.03
2019-02-11T06:47:32.050Z,14.50
2019-02-11T06:50:00.643Z,19.27
2019-02-11T06:52:29.211Z,15.80
2019-02-11T06:54:58.749Z,17.10
2019-02-11T06:57:27.790Z,15.87
2019-02-11T06:59:56.763Z,14.67
2019-02-11T07:02:25.466Z,13.17
2019-02-11T07:04:54.139Z,13.83
2019-02-11T07:07:22.513Z,16.37
2019-02-11T07:09:51.179Z,17.67
2019-02-11T07:12:19.894Z,15.33
2019-02-11T07:14:48.587Z,18.07
2019-02-11T07:17:17.519Z,15.47
2019-02-11T07:19:46.258Z,12.57
2019-02-11T07:22:15.039Z,17.17
2019-02-11T07:24:44.602Z,21.57
2019-02-11T07:27:13.087Z,21.00
2019-02-11T07:29:41.614Z,13.67
2019-02-11T07:32:10.383Z,18.93
2019-02-11T07:34:38.995Z,19.33
2019-02-11T07:37:07.973Z,15.37
2019-02-11T07:39:36.602Z,12.73
2019-02-11T07:42:23.163Z,20.97
2019-02-11T07:44:57.434Z,17.90
2019-02-11T07:47:26.327Z,15.07
2019-02-11T07:49:54.998Z,15.67
2019-02-11T07:52:26.878Z,22.83
2019-02-11T07:54:53.984Z,19.80
2019-02-11T07:57:22.815Z,20.33
2019-02-11T07:59:51.915Z,21.10
2019-02-11T08:02:20.591Z,26.48
2019-02-11T08:04:49.629Z,22.87
2019-02-11T08:07:19.239Z,30.20
2019-02-11T08:09:49.152Z,21.30
2019-02-11T08:12:17.836Z,25.83
2019-02-11T08:14:46.830Z,23.63
2019-02-11T08:17:15.520Z,26.20
2019-02-11T08:19:44.387Z,26.37
2019-02-11T08:22:12.703Z,30.17
2019-02-11T08:24:41.575Z,31.50
2019-02-11T08:27:10.571Z,27.50
2019-02-11T08:29:39.257Z,32.33
2019-02-11T08:32:07.855Z,29.30
2019-02-11T08:34:37.775Z,26.87
2019-02-11T08:37:06.180Z,27.27
2019-02-11T08:39:34.696Z,30.33
2019-02-11T08:42:03.278Z,22.80
2019-02-11T08:44:33.562Z,28.53
2019-02-11T08:47:02.510Z,31.67
2019-02-11T08:49:31.380Z,31.13
2019-02-11T08:52:00.188Z,28.97
2019-02-11T08:54:28.479Z,33.30
2019-02-11T08:56:57.536Z,30.80
2019-02-11T08:59:25.959Z,33.70
2019-02-11T09:01:54.787Z,34.23
2019-02-11T09:04:23.272Z,26.40
2019-02-11T09:06:53.295Z,26.47
2019-02-11T09:09:22.171Z,31.13
2019-02-11T09:11:50.527Z,39.27
2019-02-11T09:14:19.136Z,37.33
2019-02-11T09:16:47.924Z,23.00
2019-02-11T09:19:16.232Z,33.90
2019-02-11T09:21:44.715Z,34.07
2019-02-11T09:24:13.733Z,26.80
2019-02-11T09:26:42.343Z,40.73
2019-02-11T09:29:11.396Z,36.63
2019-02-11T09:31:40.389Z,31.40
2019-02-11T09:34:09.384Z,38.73
2019-02-11T09:36:38.069Z,43.57
2019-02-11T09:39:07.903Z,37.90
2019-02-11T09:41:36.227Z,38.03
2019-02-11T09:44:04.772Z,27.80
2019-02-11T09:46:33.531Z,36.07
2019-02-11T09:49:02.370Z,35.87
2019-02-11T09:51:31.413Z,31.13
2019-02-11T09:53:59.827Z,41.10
2019-02-11T09:56:28.577Z,26.07
2019-02-11T09:58:57.151Z,38.80
2019-02-11T10:01:25.710Z,37.20
2019-02-11T10:03:54.391Z,26.47
2019-02-11T10:06:23.176Z,30.60
2019-02-11T10:08:51.755Z,40.37
2019-02-11T10:11:20.184Z,30.97
2019-02-11T10:13:48.844Z,37.60
2019-02-11T10:16:19.463Z,38.77
2019-02-11T10:18:48.035Z,28.27
2019-02-11T10:21:17.407Z,22.93
2019-02-11T10:23:45.791Z,20.17
2019-02-11T10:26:14.253Z,14.53
2019-02-11T10:28:43.831Z,25.07
2019-02-11T10:31:12.446Z,20.33
2019-02-11T10:33:40.836Z,17.43
2019-02-11T10:36:09.302Z,15.97
2019-02-11T10:38:37.872Z,24.87
2019-02-11T10:41:07.335Z,21.13
2019-02-11T10:43:36.643Z,11.50
2019-02-11T10:46:05.195Z,22.23
2019-02-11T10:48:33.935Z,14.50
2019-02-11T10:51:06.711Z,14.97
2019-02-11T10:53:35.574Z,13.03
2019-02-11T10:56:04.041Z,23.42
2019-02-11T10:58:32.667Z,19.33
2019-02-11T11:01:01.372Z,13.33
2019-02-11T11:03:30.023Z,17.87
2019-02-11T11:05:59.351Z,21.47
2019-02-11T11:08:27.966Z,17.23
2019-02-11T11:10:56.605Z,19.40
2019-02-11T11:13:25.266Z,19.27
2019-02-11T11:15:54.055Z,19.70
2019-02-11T11:18:22.495Z,13.63
2019-02-11T11:20:51.476Z,16.07
2019-02-11T11:23:20.215Z,15.80
2019-02-11T11:25:49.111Z,13.33
2019-02-11T11:28:17.654Z,11.27
2019-02-11T11:30:46.071Z,7.37
2019-02-11T11:33:14.593Z,15.27
2019-02-11T11:35:43.247Z,12.90
2019-02-11T11:38:11.586Z,15.03
2019-02-11T11:40:40.535Z,14.57
2019-02-11T11:43:08.959Z,10.07
2019-02-11T11:45:37.867Z,10.87
2019-02-11T11:48:06.423Z,11.07
2019-02-11T11:50:35.394Z,10.93
2019-02-11T11:53:04.055Z,12.00
2019-02-11T11:55:32.416Z,15.47
2019-02-11T11:58:00.770Z,16.30
2019-02-11T12:00:29.558Z,13.67
2019-02-11T12:03:02.676Z,18.13
2019-02-11T12:05:28.607Z,14.00
2019-02-11T12:07:57.445Z,13.17
2019-02-11T12:10:26.578Z,11.57
2019-02-11T12:12:55.477Z,10.77
2019-02-11T12:15:24.389Z,10.77
2019-02-11T12:17:52.987Z,9.63
2019-02-11T12:20:21.398Z,9.90
2019-02-11T12:22:50.346Z,11.00
2019-02-11T12:25:19.117Z,11.37
2019-02-11T12:27:47.839Z,17.87
2019-02-11T12:30:21.508Z,12.90
2019-02-11T12:32:54.819Z,10.67
2019-02-11T12:35:28.603Z,18.60
2019-02-11T12:37:57.637Z,19.40
2019-02-11T12:40:26.575Z,17.77
2019-02-11T12:42:55.007Z,27.20
2019-02-11T12:45:25.000Z,16.57
2019-02-11T12:47:55.152Z,13.47
2019-02-11T12:50:24.015Z,11.63
2019-02-11T12:52:52.422Z,20.47
2019-02-11T12:55:21.542Z,13.50
2019-02-11T12:57:50.730Z,13.67
2019-02-11T13:00:20.369Z,14.10
2019-02-11T13:02:49.094Z,13.90
2019-02-11T13:05:21.859Z,13.27
2019-02-11T13:07:49.554Z,11.23
2019-02-11T13:10:19.655Z,9.77
2019-02-11T13:12:48.324Z,13.13
2019-02-11T13:15:41.820Z,11.03
2019-02-11T13:17:47.725Z,6.63
2019-02-11T13:20:16.382Z,8.97
2019-02-11T13:22:45.346Z,8.23
2019-02-11T13:25:14.100Z,4.77
2019-02-11T13:27:43.961Z,7.50
2019-02-11T13:30:13.804Z,6.90
2019-02-11T13:32:42.474Z,6.43
2019-02-11T13:35:10.979Z,4.27
2019-02-11T13:37:39.870Z,4.97
2019-02-11T13:40:09.119Z,7.07
2019-02-11T13:42:38.166Z,10.30
2019-02-11T13:45:09.405Z,7.57
2019-02-11T13:47:51.997Z,5.87
2019-02-11T13:50:09.081Z,6.43
2019-02-11T13:52:37.796Z,9.20
2019-02-11T13:55:06.541Z,15.77
2019-02-11T13:57:35.575Z,10.03
2019-02-11T14:00:08.902Z,13.93
2019-02-11T14:02:45.575Z,11.00
2019-02-11T14:05:14.841Z,12.67
2019-02-11T14:07:43.599Z,14.23
2019-02-11T14:10:13.536Z,13.63
2019-02-11T14:12:43.743Z,18.37
2019-02-11T14:15:12.921Z,10.10
2019-02-11T14:17:41.754Z,4.03
2019-02-11T14:20:17.359Z,6.30
2019-02-11T14:22:45.915Z,3.87
2019-02-11T14:25:16.072Z,2.77
2019-02-11T14:27:45.015Z,10.13
2019-02-11T14:30:14.476Z,2.97
2019-02-11T14:32:43.838Z,2.73
2019-02-11T14:35:12.676Z,4.30
2019-02-11T14:37:41.727Z,9.97
2019-02-11T14:40:12.511Z,2.57
2019-02-11T14:42:41.383Z,6.77
2019-02-11T14:45:13.058Z,4.40
2019-02-11T14:47:44.363Z,3.23
2019-02-11T14:50:13.581Z,8.73
2019-02-11T14:52:42.700Z,3.37
2019-02-11T14:55:12.300Z,4.23
2019-02-11T14:57:41.257Z,3.07
2019-02-11T15:00:15.487Z,4.67
2019-02-11T15:02:44.475Z,2.07
2019-02-11T15:05:14.727Z,3.33
2019-02-11T15:07:43.863Z,3.87
2019-02-11T15:10:13.029Z,5.10
2019-02-11T15:12:44.216Z,3.90
2019-02-11T15:15:13.069Z,4.07
2019-02-11T15:17:42.045Z,6.27
2019-02-11T15:20:12.462Z,5.97
2019-02-11T15:22:40.941Z,3.57
2019-02-11T15:25:14.440Z,6.93
2019-02-11T15:27:44.389Z,5.67
2019-02-11T15:30:15.291Z,7.37
2019-02-11T15:32:44.203Z,4.07
2019-02-11T15:35:13.511Z,2.87
2019-02-11T15:37:41.864Z,5.77
2019-02-11T15:40:13.223Z,4.10
2019-02-11T15:42:42.616Z,4.63
2019-02-11T15:45:13.503Z,3.63
2019-02-11T15:47:43.114Z,3.60
2019-02-11T15:50:12.560Z,2.43
2019-02-11T15:52:42.251Z,2.40
2019-02-11T15:55:13.255Z,5.23
2019-02-11T15:57:44.019Z,4.33
2019-02-11T16:00:14.951Z,6.97
2019-02-11T16:02:43.803Z,6.50
2019-02-11T16:05:16.544Z,9.20
2019-02-11T16:07:46.621Z,11.97
2019-02-11T16:10:17.479Z,7.73
2019-02-11T16:12:46.305Z,10.03
2019-02-11T16:15:15.012Z,9.80
2019-02-11T16:17:43.669Z,8.43
2019-02-11T16:20:14.682Z,17.80
2019-02-11T16:22:46.588Z,9.03
2019-02-11T16:25:18.231Z,18.50
2019-02-11T16:27:47.500Z,14.80
2019-02-11T16:30:17.968Z,15.70
2019-02-11T16:32:46.778Z,13.83
2019-02-11T16:35:15.733Z,17.90
2019-02-11T16:37:46.088Z,22.00
2019-02-11T16:40:18.863Z,11.03
2019-02-11T16:42:47.423Z,12.90
2019-02-11T16:45:16.072Z,12.23
2019-02-11T16:47:45.780Z,14.70
2019-02-11T16:50:14.715Z,14.87
2019-02-11T16:52:43.852Z,11.47
2019-02-11T16:55:13.485Z,12.90
2019-02-11T16:57:42.314Z,8.63
2019-02-11T17:00:13.506Z,11.00
2019-02-11T17:02:42.399Z,7.83
2019-02-11T17:05:12.243Z,7.77
2019-02-11T17:07:42.236Z,13.03
2019-02-11T17:10:12.015Z,10.53
2019-02-11T17:12:40.572Z,11.03
2019-02-11T17:15:11.375Z,8.90
2019-02-11T17:17:39.743Z,11.00
2019-02-11T17:20:09.588Z,13.53
2019-02-11T17:22:38.066Z,8.63
2019-02-11T17:25:07.673Z,8.63
2019-02-11T17:27:36.328Z,10.17
2019-02-11T17:30:06.596Z,17.03
2019-02-11T17:32:35.015Z,18.73
2019-02-11T17:35:04.304Z,19.90
2019-02-11T17:37:32.978Z,10.23
2019-02-11T17:40:01.863Z,10.20
2019-02-11T17:42:30.427Z,16.17
2019-02-11T17:44:58.866Z,15.67
2019-02-11T17:47:27.831Z,7.93
2019-02-11T17:49:56.351Z,7.00
2019-02-11T17:52:25.186Z,9.17
2019-02-11T17:54:53.818Z,8.77
2019-02-11T17:57:22.317Z,10.97
2019-02-11T17:59:50.791Z,10.53
2019-02-11T18:02:19.246Z,18.27
2019-02-11T18:04:48.048Z,14.80
2019-02-11T18:07:16.452Z,23.00
2019-02-11T18:09:44.923Z,13.70
2019-02-11T18:12:15.000Z,21.57
2019-02-11T18:14:43.801Z,16.93
2019-02-11T18:17:12.582Z,20.57
2019-02-11T18:19:41.324Z,16.97
2019-02-11T18:22:10.325Z,13.47
2019-02-11T18:24:38.679Z,16.53
2019-02-11T18:27:20.769Z,22.57
2019-02-11T18:29:49.798Z,19.77
2019-02-11T18:32:18.788Z,28.87
2019-02-11T18:34:47.710Z,29.20
2019-02-11T18:37:16.600Z,25.10
2019-02-11T18:39:45.594Z,30.40
2019-02-11T18:42:14.181Z,23.00
2019-02-11T18:44:42.748Z,33.97
2019-02-11T18:47:12.047Z,37.77
2019-02-11T18:49:42.126Z,31.83
2019-02-11T18:52:11.188Z,32.83
2019-02-11T18:54:40.039Z,26.57
2019-02-11T18:57:08.948Z,35.20
2019-02-11T18:59:38.128Z,21.40
2019-02-11T19:02:06.712Z,27.17
2019-02-11T19:04:36.160Z,34.17
2019-02-11T19:07:05.379Z,15.63
2019-02-11T19:09:34.249Z,16.83
2019-02-11T19:12:03.444Z,14.13
2019-02-11T19:14:32.026Z,15.97
2019-02-11T19:17:00.979Z,16.23
2019-02-11T19:19:30.298Z,19.43
2019-02-11T19:21:59.364Z,22.80
2019-02-11T19:24:27.856Z,24.77
2019-02-11T19:26:56.437Z,43.23
2019-02-11T19:29:25.256Z,40.17
2019-02-11T19:31:54.064Z,39.83
2019-02-11T19:34:23.160Z,10.67
2019-02-11T19:36:52.306Z,10.23
2019-02-11T19:39:21.597Z,29.07
2019-02-11T19:41:50.344Z,23.60
2019-02-11T19:44:19.147Z,15.33
2019-02-11T19:46:48.063Z,14.37
2019-02-11T19:49:16.723Z,26.37
2019-02-11T19:51:45.452Z,21.90
2019-02-11T19:54:18.921Z,17.17
2019-02-11T19:56:48.320Z,15.40
2019-02-11T19:59:16.992Z,19.53
2019-02-11T20:01:45.963Z,25.67
2019-02-11T20:04:14.997Z,31.00
2019-02-11T20:06:44.125Z,27.37
2019-02-11T20:09:13.379Z,25.20
2019-02-11T20:11:42.434Z,26.80
2019-02-11T20:14:11.456Z,27.10
2019-02-11T20:16:40.177Z,34.10
2019-02-11T20:19:09.028Z,29.67
2019-02-11T20:21:37.998Z,25.87
2019-02-11T20:24:07.661Z,27.77
2019-02-11T20:26:36.828Z,29.90
2019-02-11T20:29:05.887Z,28.97
2019-02-11T20:31:35.044Z,23.00
2019-02-11T20:34:05.017Z,31.17
2019-02-11T20:36:34.311Z,30.82
2019-02-11T20:39:04.712Z,31.20
2019-02-11T20:41:37.800Z,26.77
2019-02-11T20:44:08.978Z,30.33
2019-02-11T20:46:39.101Z,31.23
2019-02-11T20:49:07.883Z,28.17
2019-02-11T20:51:37.594Z,30.30
2019-02-11T20:54:06.963Z,33.43
2019-02-11T20:56:36.359Z,38.70
2019-02-11T20:59:05.662Z,38.03
2019-02-11T21:01:35.473Z,33.93
2019-02-11T21:04:04.573Z,34.57
2019-02-11T21:06:33.631Z,36.93
2019-02-11T21:09:04.205Z,29.87
2019-02-11T21:11:36.702Z,33.07
2019-02-11T21:14:10.707Z,41.77
2019-02-11T21:16:45.852Z,38.67
2019-02-11T21:19:15.578Z,32.37
2019-02-11T21:21:44.916Z,42.00
2019-02-11T21:24:14.087Z,40.60
2019-02-11T21:26:43.856Z,41.33
2019-02-11T21:29:12.640Z,37.83
2019-02-11T21:31:41.392Z,37.83
2019-02-11T21:34:10.604Z,39.33
2019-02-11T21:36:39.596Z,39.70
2019-02-11T21:39:09.049Z,39.77
2019-02-11T21:41:37.914Z,37.93
2019-02-11T21:44:07.195Z,35.43
2019-02-11T21:46:36.449Z,39.77
2019-02-11T21:49:05.183Z,43.53
2019-02-11T21:51:33.909Z,39.37
2019-02-11T21:54:02.628Z,38.97
2019-02-11T21:56:31.754Z,36.33
2019-02-11T21:59:00.342Z,29.17
2019-02-11T22:01:29.773Z,27.93
2019-02-11T22:03:59.023Z,20.77
2019-02-11T22:06:27.886Z,21.93
2019-02-11T22:08:56.908Z,21.83
2019-02-11T22:11:26.699Z,27.67
2019-02-11T22:13:56.019Z,20.33
2019-02-11T22:16:25.085Z,27.93
2019-02-11T22:18:54.427Z,23.00
2019-02-11T22:21:24.433Z,19.40
2019-02-11T22:23:53.518Z,17.47
2019-02-11T22:26:22.905Z,19.07
2019-02-11T22:28:51.823Z,24.03
2019-02-11T22:31:20.558Z,25.40
2019-02-11T22:33:49.232Z,23.30
2019-02-11T22:36:18.146Z,18.33
2019-02-11T22:38:46.895Z,20.23
2019-02-11T22:41:16.840Z,19.67
2019-02-11T22:43:46.101Z,19.53
2019-02-11T22:46:14.827Z,16.70
2019-02-11T22:48:44.928Z,15.13
2019-02-11T22:51:14.080Z,14.80
2019-02-11T22:53:42.976Z,11.93
2019-02-11T22:56:11.986Z,11.30
2019-02-11T22:58:40.870Z,10.50
2019-02-11T23:01:10.440Z,10.73
2019-02-11T23:03:39.191Z,10.93
2019-02-11T23:06:08.192Z,13.23
2019-02-11T23:08:42.630Z,11.40
2019-02-11T23:11:11.871Z,9.63
2019-02-11T23:13:40.844Z,14.77
2019-02-11T23:16:09.431Z,14.03
2019-02-11T23:18:38.692Z,12.77
2019-02-11T23:21:08.592Z,14.27
2019-02-11T23:23:37.443Z,10.20
2019-02-11T23:26:06.064Z,13.07
2019-02-11T23:28:35.484Z,13.87
2019-02-11T23:31:04.461Z,16.27
2019-02-11T23:33:33.459Z,13.43
2019-02-11T23:36:02.720Z,12.27
2019-02-11T23:38:31.549Z,10.90
2019-02-11T23:41:00.372Z,18.60
2019-02-11T23:43:29.288Z,13.23
2019-02-11T23:45:57.994Z,14.40
2019-02-11T23:48:26.718Z,15.23
2019-02-11T23:51:00.434Z,30.67
2019-02-11T23:53:26.252Z,18.53
2019-02-11T23:55:54.932Z,18.37
2019-02-11T23:58:23.623Z,18.73
